sensor_id;sensor_type;location;lat;lon;timestamp;temperature;humidity
49242;DHT22;35079;52.704;13.814;2022-07-01T00:01:01;20.40;99.90
49242;DHT22;35079;52.704;13.814;2022-07-01T00:03:27;20.40;99.90
49242;DHT22;35079;52.704;13.814;2022-07-01T00:06:22;20.40;99.90
49242;DHT22;35079;52.704;13.814;2022-07-01T00:08:49;20.40;99.90
49242;DHT22;35079;52.704;13.814;2022-07-01T00:11:24;20.30;99.90
49242;DHT22;35079;52.704;13.814;2022-07-01T00:19:59;20.30;99.90
49242;DHT22;35079;52.704;13.814;2022-07-01T00:36:33;20.20;99.90
49242;DHT22;35079;52.704;13.814;2022-07-01T00:42:28;20.10;99.90
49242;DHT22;35079;52.704;13.814;2022-07-01T00:49:16;20.10;99.90
49242;DHT22;35079;52.704;13.814;2022-07-01T00:53:31;20.10;99.90
49242;DHT22;35079;52.704;13.814;2022-07-01T01:02:22;20.00;99.90
49242;DHT22;35079;52.704;13.814;2022-07-01T01:05:00;19.90;99.90
49242;DHT22;35079;52.704;13.814;2022-07-01T01:07:25;19.90;99.90
49242;DHT22;35079;52.704;13.814;2022-07-01T01:10:24;19.90;99.90
49242;DHT22;35079;52.704;13.814;2022-07-01T01:13:06;20.00;99.90
49242;DHT22;35079;52.704;13.814;2022-07-01T01:15:46;19.90;99.90
49242;DHT22;35079;52.704;13.814;2022-07-01T01:18:22;19.90;99.90
49242;DHT22;35079;52.704;13.814;2022-07-01T01:20:48;19.90;99.90
49242;DHT22;35079;52.704;13.814;2022-07-01T01:23:32;19.90;99.90
49242;DHT22;35079;52.704;13.814;2022-07-01T01:26:00;19.90;99.90
49242;DHT22;35079;52.704;13.814;2022-07-01T01:29:00;19.90;99.90
49242;DHT22;35079;52.704;13.814;2022-07-01T01:32:17;19.90;99.90
49242;DHT22;35079;52.704;13.814;2022-07-01T01:34:42;19.80;99.90
49242;DHT22;35079;52.704;13.814;2022-07-01T01:37:28;19.80;99.90
49242;DHT22;35079;52.704;13.814;2022-07-01T01:40:18;19.80;99.90
49242;DHT22;35079;52.704;13.814;2022-07-01T01:42:45;19.80;99.90
49242;DHT22;35079;52.704;13.814;2022-07-01T01:45:12;19.80;99.90
49242;DHT22;35079;52.704;13.814;2022-07-01T01:47:47;19.90;99.90
49242;DHT22;35079;52.704;13.814;2022-07-01T01:50:32;19.80;99.90
49242;DHT22;35079;52.704;13.814;2022-07-01T01:52:57;19.90;99.90
49242;DHT22;35079;52.704;13.814;2022-07-01T01:55:26;19.90;99.90
49242;DHT22;35079;52.704;13.814;2022-07-01T01:58:11;19.80;99.90
49242;DHT22;35079;52.704;13.814;2022-07-01T02:01:01;19.80;99.90
49242;DHT22;35079;52.704;13.814;2022-07-01T02:03:29;19.80;99.90
49242;DHT22;35079;52.704;13.814;2022-07-01T02:05:58;19.80;99.90
49242;DHT22;35079;52.704;13.814;2022-07-01T02:08:24;19.80;99.90
49242;DHT22;35079;52.704;13.814;2022-07-01T02:11:09;19.90;99.90
49242;DHT22;35079;52.704;13.814;2022-07-01T02:13:40;19.80;99.90
49242;DHT22;35079;52.704;13.814;2022-07-01T02:16:11;19.80;99.90
49242;DHT22;35079;52.704;13.814;2022-07-01T02:19:08;19.80;99.90
49242;DHT22;35079;52.704;13.814;2022-07-01T02:21:46;19.80;99.90
49242;DHT22;35079;52.704;13.814;2022-07-01T02:24:32;19.70;99.90
49242;DHT22;35079;52.704;13.814;2022-07-01T02:26:58;19.70;99.90
49242;DHT22;35079;52.704;13.814;2022-07-01T02:29:26;19.60;99.90
49242;DHT22;35079;52.704;13.814;2022-07-01T02:31:58;19.50;99.90
49242;DHT22;35079;52.704;13.814;2022-07-01T02:34:24;19.60;99.90
49242;DHT22;35079;52.704;13.814;2022-07-01T02:36:50;19.70;99.90
49242;DHT22;35079;52.704;13.814;2022-07-01T02:39:37;19.80;99.90
49242;DHT22;35079;52.704;13.814;2022-07-01T02:42:18;19.90;99.90
49242;DHT22;35079;52.704;13.814;2022-07-01T02:44:53;19.90;99.90
49242;DHT22;35079;52.704;13.814;2022-07-01T02:47:20;19.90;99.90
49242;DHT22;35079;52.704;13.814;2022-07-01T02:59:20;20.10;99.90
49242;DHT22;35079;52.704;13.814;2022-07-01T03:06:32;20.10;99.90
49242;DHT22;35079;52.704;13.814;2022-07-01T03:09:57;20.10;99.90
49242;DHT22;35079;52.704;13.814;2022-07-01T03:23:16;20.30;99.90
49242;DHT22;35079;52.704;13.814;2022-07-01T03:25:44;20.30;99.90
49242;DHT22;35079;52.704;13.814;2022-07-01T03:28:10;20.30;99.90
49242;DHT22;35079;52.704;13.814;2022-07-01T03:30:52;20.40;99.90
49242;DHT22;35079;52.704;13.814;2022-07-01T03:33:18;20.40;99.90
49242;DHT22;35079;52.704;13.814;2022-07-01T03:36:14;20.40;99.90
49242;DHT22;35079;52.704;13.814;2022-07-01T03:38:43;20.50;99.90
49242;DHT22;35079;52.704;13.814;2022-07-01T03:41:12;20.50;99.90
49242;DHT22;35079;52.704;13.814;2022-07-01T03:43:48;20.60;99.90
49242;DHT22;35079;52.704;13.814;2022-07-01T03:46:14;20.60;99.90
49242;DHT22;35079;52.704;13.814;2022-07-01T03:48:40;20.60;99.90
49242;DHT22;35079;52.704;13.814;2022-07-01T03:51:05;20.80;99.90
49242;DHT22;35079;52.704;13.814;2022-07-01T03:53:38;20.80;99.90
49242;DHT22;35079;52.704;13.814;2022-07-01T03:56:28;20.70;99.90
49242;DHT22;35079;52.704;13.814;2022-07-01T03:58:54;20.70;99.90
49242;DHT22;35079;52.704;13.814;2022-07-01T04:01:22;20.70;99.90
49242;DHT22;35079;52.704;13.814;2022-07-01T04:03:48;20.80;99.90
49242;DHT22;35079;52.704;13.814;2022-07-01T04:06:16;20.90;99.90
49242;DHT22;35079;52.704;13.814;2022-07-01T04:08:42;20.80;99.90
49242;DHT22;35079;52.704;13.814;2022-07-01T04:11:12;21.00;99.90
49242;DHT22;35079;52.704;13.814;2022-07-01T04:13:38;21.00;99.90
49242;DHT22;35079;52.704;13.814;2022-07-01T04:16:04;21.10;99.90
49242;DHT22;35079;52.704;13.814;2022-07-01T04:18:30;21.20;99.90
49242;DHT22;35079;52.704;13.814;2022-07-01T04:20:57;21.30;99.90
49242;DHT22;35079;52.704;13.814;2022-07-01T04:23:49;21.30;99.90
49242;DHT22;35079;52.704;13.814;2022-07-01T04:26:16;21.30;99.90
49242;DHT22;35079;52.704;13.814;2022-07-01T04:28:42;21.50;99.90
49242;DHT22;35079;52.704;13.814;2022-07-01T04:31:07;21.50;99.90
49242;DHT22;35079;52.704;13.814;2022-07-01T04:33:33;21.50;99.90
49242;DHT22;35079;52.704;13.814;2022-07-01T04:35:59;21.60;99.90
49242;DHT22;35079;52.704;13.814;2022-07-01T04:38:25;21.80;99.90
49242;DHT22;35079;52.704;13.814;2022-07-01T04:40:50;21.90;99.90
49242;DHT22;35079;52.704;13.814;2022-07-01T04:43:34;21.90;99.90
49242;DHT22;35079;52.704;13.814;2022-07-01T04:46:00;22.00;99.90
49242;DHT22;35079;52.704;13.814;2022-07-01T04:48:25;22.00;99.90
49242;DHT22;35079;52.704;13.814;2022-07-01T04:50:51;22.10;99.90
49242;DHT22;35079;52.704;13.814;2022-07-01T04:53:17;22.20;99.90
49242;DHT22;35079;52.704;13.814;2022-07-01T04:55:42;22.40;99.90
49242;DHT22;35079;52.704;13.814;2022-07-01T04:58:08;22.40;99.90
49242;DHT22;35079;52.704;13.814;2022-07-01T05:00:33;22.30;99.90
49242;DHT22;35079;52.704;13.814;2022-07-01T05:02:59;22.40;99.90
49242;DHT22;35079;52.704;13.814;2022-07-01T05:05:25;22.50;99.90
49242;DHT22;35079;52.704;13.814;2022-07-01T05:07:50;22.50;99.90
49242;DHT22;35079;52.704;13.814;2022-07-01T05:10:16;22.60;99.90
49242;DHT22;35079;52.704;13.814;2022-07-01T05:12:41;22.60;99.90
49242;DHT22;35079;52.704;13.814;2022-07-01T05:15:07;22.60;99.90
49242;DHT22;35079;52.704;13.814;2022-07-01T05:17:34;22.70;99.90
49242;DHT22;35079;52.704;13.814;2022-07-01T05:20:18;22.70;99.90
49242;DHT22;35079;52.704;13.814;2022-07-01T05:23:02;22.90;99.90
49242;DHT22;35079;52.704;13.814;2022-07-01T05:25:29;23.00;99.90
49242;DHT22;35079;52.704;13.814;2022-07-01T05:27:55;23.10;99.90
49242;DHT22;35079;52.704;13.814;2022-07-01T05:30:21;23.30;99.90
49242;DHT22;35079;52.704;13.814;2022-07-01T05:32:47;23.30;99.90
49242;DHT22;35079;52.704;13.814;2022-07-01T05:35:13;23.40;99.90
49242;DHT22;35079;52.704;13.814;2022-07-01T05:37:40;23.60;99.90
49242;DHT22;35079;52.704;13.814;2022-07-01T05:40:06;23.50;99.90
49242;DHT22;35079;52.704;13.814;2022-07-01T05:42:32;23.70;99.90
49242;DHT22;35079;52.704;13.814;2022-07-01T05:44:57;23.80;99.90
49242;DHT22;35079;52.704;13.814;2022-07-01T05:47:23;23.70;99.90
49242;DHT22;35079;52.704;13.814;2022-07-01T05:49:48;23.90;99.90
49242;DHT22;35079;52.704;13.814;2022-07-01T05:52:14;23.80;99.90
49242;DHT22;35079;52.704;13.814;2022-07-01T05:54:39;24.00;99.90
49242;DHT22;35079;52.704;13.814;2022-07-01T05:57:05;23.90;99.90
49242;DHT22;35079;52.704;13.814;2022-07-01T05:59:31;24.10;99.90
49242;DHT22;35079;52.704;13.814;2022-07-01T06:01:56;24.20;99.90
49242;DHT22;35079;52.704;13.814;2022-07-01T06:04:22;24.30;99.90
49242;DHT22;35079;52.704;13.814;2022-07-01T06:06:47;24.40;99.90
49242;DHT22;35079;52.704;13.814;2022-07-01T06:09:13;24.70;99.90
49242;DHT22;35079;52.704;13.814;2022-07-01T06:11:39;24.70;99.90
49242;DHT22;35079;52.704;13.814;2022-07-01T06:14:04;24.80;99.90
49242;DHT22;35079;52.704;13.814;2022-07-01T06:16:30;24.90;99.90
49242;DHT22;35079;52.704;13.814;2022-07-01T06:18:55;24.90;99.90
49242;DHT22;35079;52.704;13.814;2022-07-01T06:21:21;25.10;99.90
49242;DHT22;35079;52.704;13.814;2022-07-01T06:23:47;25.10;99.90
49242;DHT22;35079;52.704;13.814;2022-07-01T06:26:12;25.30;99.90
49242;DHT22;35079;52.704;13.814;2022-07-01T06:28:38;25.30;99.90
49242;DHT22;35079;52.704;13.814;2022-07-01T06:31:04;25.50;99.90
49242;DHT22;35079;52.704;13.814;2022-07-01T06:33:30;25.70;99.90
49242;DHT22;35079;52.704;13.814;2022-07-01T06:35:56;25.70;99.90
49242;DHT22;35079;52.704;13.814;2022-07-01T06:38:23;25.80;99.90
49242;DHT22;35079;52.704;13.814;2022-07-01T06:40:49;26.10;99.90
49242;DHT22;35079;52.704;13.814;2022-07-01T06:43:34;26.30;99.90
49242;DHT22;35079;52.704;13.814;2022-07-01T06:46:00;26.60;99.90
49242;DHT22;35079;52.704;13.814;2022-07-01T06:48:25;26.80;99.90
49242;DHT22;35079;52.704;13.814;2022-07-01T06:50:51;27.10;99.90
49242;DHT22;35079;52.704;13.814;2022-07-01T06:53:16;27.10;99.90
49242;DHT22;35079;52.704;13.814;2022-07-01T06:55:42;27.30;99.90
49242;DHT22;35079;52.704;13.814;2022-07-01T06:58:08;27.40;99.90
49242;DHT22;35079;52.704;13.814;2022-07-01T07:00:35;27.60;99.90
49242;DHT22;35079;52.704;13.814;2022-07-01T07:03:01;27.60;99.90
49242;DHT22;35079;52.704;13.814;2022-07-01T07:05:27;27.60;99.90
49242;DHT22;35079;52.704;13.814;2022-07-01T07:07:55;27.50;99.90
49242;DHT22;35079;52.704;13.814;2022-07-01T07:10:21;27.40;99.90
49242;DHT22;35079;52.704;13.814;2022-07-01T07:12:47;27.30;99.90
49242;DHT22;35079;52.704;13.814;2022-07-01T07:15:12;27.30;99.90
49242;DHT22;35079;52.704;13.814;2022-07-01T07:17:38;27.40;99.90
49242;DHT22;35079;52.704;13.814;2022-07-01T07:20:04;27.40;99.90
49242;DHT22;35079;52.704;13.814;2022-07-01T07:22:30;27.30;99.90
49242;DHT22;35079;52.704;13.814;2022-07-01T07:24:56;27.20;99.90
49242;DHT22;35079;52.704;13.814;2022-07-01T07:27:21;27.20;99.90
49242;DHT22;35079;52.704;13.814;2022-07-01T07:29:47;27.40;99.90
49242;DHT22;35079;52.704;13.814;2022-07-01T07:32:12;27.30;99.90
49242;DHT22;35079;52.704;13.814;2022-07-01T07:34:38;27.20;99.90
49242;DHT22;35079;52.704;13.814;2022-07-01T07:37:04;27.30;99.90
49242;DHT22;35079;52.704;13.814;2022-07-01T07:39:29;27.20;99.90
49242;DHT22;35079;52.704;13.814;2022-07-01T07:41:55;27.30;99.90
49242;DHT22;35079;52.704;13.814;2022-07-01T07:44:21;27.40;99.90
49242;DHT22;35079;52.704;13.814;2022-07-01T07:46:47;27.30;99.90
49242;DHT22;35079;52.704;13.814;2022-07-01T07:49:12;27.60;99.90
49242;DHT22;35079;52.704;13.814;2022-07-01T07:51:38;27.80;99.90
49242;DHT22;35079;52.704;13.814;2022-07-01T07:54:03;27.80;99.90
49242;DHT22;35079;52.704;13.814;2022-07-01T07:56:30;27.90;99.90
49242;DHT22;35079;52.704;13.814;2022-07-01T07:58:56;28.00;99.90
49242;DHT22;35079;52.704;13.814;2022-07-01T08:01:22;28.20;99.90
49242;DHT22;35079;52.704;13.814;2022-07-01T08:03:48;28.20;99.90
49242;DHT22;35079;52.704;13.814;2022-07-01T08:06:13;28.10;99.90
49242;DHT22;35079;52.704;13.814;2022-07-01T08:08:39;28.00;99.90
49242;DHT22;35079;52.704;13.814;2022-07-01T08:11:05;27.70;99.90
49242;DHT22;35079;52.704;13.814;2022-07-01T08:13:31;27.60;99.90
49242;DHT22;35079;52.704;13.814;2022-07-01T08:15:57;27.50;99.90
49242;DHT22;35079;52.704;13.814;2022-07-01T08:18:23;27.30;99.90
49242;DHT22;35079;52.704;13.814;2022-07-01T08:20:49;27.20;99.90
49242;DHT22;35079;52.704;13.814;2022-07-01T08:23:21;27.30;99.90
49242;DHT22;35079;52.704;13.814;2022-07-01T08:25:48;27.50;99.90
49242;DHT22;35079;52.704;13.814;2022-07-01T08:28:14;28.10;99.90
49242;DHT22;35079;52.704;13.814;2022-07-01T08:30:40;28.30;99.90
49242;DHT22;35079;52.704;13.814;2022-07-01T08:33:05;28.70;99.90
49242;DHT22;35079;52.704;13.814;2022-07-01T08:35:31;28.80;99.90
49242;DHT22;35079;52.704;13.814;2022-07-01T08:37:57;28.80;99.90
49242;DHT22;35079;52.704;13.814;2022-07-01T08:40:31;28.90;99.90
49242;DHT22;35079;52.704;13.814;2022-07-01T08:43:02;28.80;99.90
49242;DHT22;35079;52.704;13.814;2022-07-01T08:45:31;28.70;99.90
49242;DHT22;35079;52.704;13.814;2022-07-01T08:47:58;28.60;99.90
49242;DHT22;35079;52.704;13.814;2022-07-01T08:50:27;28.80;99.90
49242;DHT22;35079;52.704;13.814;2022-07-01T08:52:53;28.80;99.90
49242;DHT22;35079;52.704;13.814;2022-07-01T08:55:20;29.10;99.90
49242;DHT22;35079;52.704;13.814;2022-07-01T08:57:46;29.10;99.90
49242;DHT22;35079;52.704;13.814;2022-07-01T09:00:12;29.50;99.90
49242;DHT22;35079;52.704;13.814;2022-07-01T09:02:59;29.80;99.90
49242;DHT22;35079;52.704;13.814;2022-07-01T09:05:26;30.00;99.90
49242;DHT22;35079;52.704;13.814;2022-07-01T09:08:02;30.20;99.00
49242;DHT22;35079;52.704;13.814;2022-07-01T09:10:30;30.40;99.10
49242;DHT22;35079;52.704;13.814;2022-07-01T09:13:06;30.60;99.10
49242;DHT22;35079;52.704;13.814;2022-07-01T09:15:33;30.80;97.80
49242;DHT22;35079;52.704;13.814;2022-07-01T09:18:10;31.00;96.90
49242;DHT22;35079;52.704;13.814;2022-07-01T09:20:38;30.80;96.90
49242;DHT22;35079;52.704;13.814;2022-07-01T09:23:14;30.30;97.20
49242;DHT22;35079;52.704;13.814;2022-07-01T09:25:43;30.10;96.70
49242;DHT22;35079;52.704;13.814;2022-07-01T09:28:19;30.40;97.40
49242;DHT22;35079;52.704;13.814;2022-07-01T09:30:53;31.20;95.60
49242;DHT22;35079;52.704;13.814;2022-07-01T09:35:46;31.10;95.30
49242;DHT22;35079;52.704;13.814;2022-07-01T09:38:15;30.70;96.00
49242;DHT22;35079;52.704;13.814;2022-07-01T09:46:06;29.50;96.50
49242;DHT22;35079;52.704;13.814;2022-07-01T09:50:58;28.80;97.60
49242;DHT22;35079;52.704;13.814;2022-07-01T09:53:24;28.60;98.10
49242;DHT22;35079;52.704;13.814;2022-07-01T09:55:50;28.50;98.70
49242;DHT22;35079;52.704;13.814;2022-07-01T09:58:16;28.20;99.50
49242;DHT22;35079;52.704;13.814;2022-07-01T10:00:43;27.90;99.90
49242;DHT22;35079;52.704;13.814;2022-07-01T10:03:09;27.80;99.90
49242;DHT22;35079;52.704;13.814;2022-07-01T10:08:42;27.60;99.50
49242;DHT22;35079;52.704;13.814;2022-07-01T10:14:09;27.40;99.50
49242;DHT22;35079;52.704;13.814;2022-07-01T10:16:36;27.30;99.90
49242;DHT22;35079;52.704;13.814;2022-07-01T10:21:47;26.90;99.90
49242;DHT22;35079;52.704;13.814;2022-07-01T10:24:15;27.00;99.90
49242;DHT22;35079;52.704;13.814;2022-07-01T10:26:42;26.90;99.30
49242;DHT22;35079;52.704;13.814;2022-07-01T10:29:30;26.80;99.10
49242;DHT22;35079;52.704;13.814;2022-07-01T10:32:08;26.80;98.40
49242;DHT22;35079;52.704;13.814;2022-07-01T10:34:41;26.70;98.80
49242;DHT22;35079;52.704;13.814;2022-07-01T10:37:09;26.60;99.20
49242;DHT22;35079;52.704;13.814;2022-07-01T10:39:54;26.60;98.90
49242;DHT22;35079;52.704;13.814;2022-07-01T10:42:20;26.50;98.70
49242;DHT22;35079;52.704;13.814;2022-07-01T10:45:10;26.60;98.90
49242;DHT22;35079;52.704;13.814;2022-07-01T10:47:38;26.50;98.60
49242;DHT22;35079;52.704;13.814;2022-07-01T10:50:14;26.20;99.90
49242;DHT22;35079;52.704;13.814;2022-07-01T10:53:03;26.20;99.90
49242;DHT22;35079;52.704;13.814;2022-07-01T10:55:54;26.70;99.90
49242;DHT22;35079;52.704;13.814;2022-07-01T10:58:39;27.30;99.10
49242;DHT22;35079;52.704;13.814;2022-07-01T11:01:04;27.80;96.80
49242;DHT22;35079;52.704;13.814;2022-07-01T11:03:35;27.50;96.50
49242;DHT22;35079;52.704;13.814;2022-07-01T11:06:02;27.10;97.90
49242;DHT22;35079;52.704;13.814;2022-07-01T11:08:28;27.20;97.00
49242;DHT22;35079;52.704;13.814;2022-07-01T11:10:58;27.50;97.90
49242;DHT22;35079;52.704;13.814;2022-07-01T11:13:25;28.20;96.10
49242;DHT22;35079;52.704;13.814;2022-07-01T11:15:51;28.60;95.70
49242;DHT22;35079;52.704;13.814;2022-07-01T11:18:19;28.70;94.60
49242;DHT22;35079;52.704;13.814;2022-07-01T11:20:44;29.10;93.70
49242;DHT22;35079;52.704;13.814;2022-07-01T11:23:11;29.20;92.70
49242;DHT22;35079;52.704;13.814;2022-07-01T11:25:37;28.70;92.30
49242;DHT22;35079;52.704;13.814;2022-07-01T11:28:02;27.90;93.50
49242;DHT22;35079;52.704;13.814;2022-07-01T11:30:28;27.20;94.10
49242;DHT22;35079;52.704;13.814;2022-07-01T11:32:58;26.50;94.00
49242;DHT22;35079;52.704;13.814;2022-07-01T11:35:29;26.10;95.20
49242;DHT22;35079;52.704;13.814;2022-07-01T11:38:19;25.70;96.40
49242;DHT22;35079;52.704;13.814;2022-07-01T11:41:06;25.20;96.80
49242;DHT22;35079;52.704;13.814;2022-07-01T11:43:37;24.90;97.70
49242;DHT22;35079;52.704;13.814;2022-07-01T11:46:05;24.70;98.30
49242;DHT22;35079;52.704;13.814;2022-07-01T11:48:40;24.30;98.00
49242;DHT22;35079;52.704;13.814;2022-07-01T11:51:21;23.90;98.60
49242;DHT22;35079;52.704;13.814;2022-07-01T11:53:49;23.50;99.90
49242;DHT22;35079;52.704;13.814;2022-07-01T11:56:17;23.30;99.90
49242;DHT22;35079;52.704;13.814;2022-07-01T11:58:51;23.30;99.90
49242;DHT22;35079;52.704;13.814;2022-07-01T12:01:31;23.10;99.90
49242;DHT22;35079;52.704;13.814;2022-07-01T12:04:01;22.90;99.90
49242;DHT22;35079;52.704;13.814;2022-07-01T12:06:28;22.90;99.90
49242;DHT22;35079;52.704;13.814;2022-07-01T12:08:55;22.80;99.90
49242;DHT22;35079;52.704;13.814;2022-07-01T12:11:23;22.80;99.90
49242;DHT22;35079;52.704;13.814;2022-07-01T12:13:49;22.80;99.90
49242;DHT22;35079;52.704;13.814;2022-07-01T12:16:15;22.50;99.90
49242;DHT22;35079;52.704;13.814;2022-07-01T12:18:58;22.60;99.90
49242;DHT22;35079;52.704;13.814;2022-07-01T12:21:27;22.70;99.90
49242;DHT22;35079;52.704;13.814;2022-07-01T12:24:06;22.70;99.90
49242;DHT22;35079;52.704;13.814;2022-07-01T12:26:32;22.80;99.90
49242;DHT22;35079;52.704;13.814;2022-07-01T12:28:58;22.70;99.90
49242;DHT22;35079;52.704;13.814;2022-07-01T12:31:23;22.50;99.90
49242;DHT22;35079;52.704;13.814;2022-07-01T12:33:51;22.60;99.90
49242;DHT22;35079;52.704;13.814;2022-07-01T12:36:17;22.70;99.90
49242;DHT22;35079;52.704;13.814;2022-07-01T12:38:43;22.80;99.90
49242;DHT22;35079;52.704;13.814;2022-07-01T12:41:35;22.80;99.90
49242;DHT22;35079;52.704;13.814;2022-07-01T12:44:06;23.10;99.90
49242;DHT22;35079;52.704;13.814;2022-07-01T12:46:44;23.40;99.90
49242;DHT22;35079;52.704;13.814;2022-07-01T12:49:18;24.30;99.90
49242;DHT22;35079;52.704;13.814;2022-07-01T12:51:45;24.90;99.90
49242;DHT22;35079;52.704;13.814;2022-07-01T12:54:31;25.60;98.80
49242;DHT22;35079;52.704;13.814;2022-07-01T12:56:57;26.00;98.10
49242;DHT22;35079;52.704;13.814;2022-07-01T12:59:23;26.30;96.90
49242;DHT22;35079;52.704;13.814;2022-07-01T13:01:49;26.40;96.60
49242;DHT22;35079;52.704;13.814;2022-07-01T13:04:27;27.10;96.60
49242;DHT22;35079;52.704;13.814;2022-07-01T13:06:53;27.70;95.90
49242;DHT22;35079;52.704;13.814;2022-07-01T13:09:19;28.30;94.30
49242;DHT22;35079;52.704;13.814;2022-07-01T13:11:45;28.10;93.70
49242;DHT22;35079;52.704;13.814;2022-07-01T13:14:11;27.80;93.10
49242;DHT22;35079;52.704;13.814;2022-07-01T13:16:36;27.50;94.50
49242;DHT22;35079;52.704;13.814;2022-07-01T13:19:02;27.50;94.30
49242;DHT22;35079;52.704;13.814;2022-07-01T13:21:28;27.60;94.30
49242;DHT22;35079;52.704;13.814;2022-07-01T13:23:55;27.40;94.10
49242;DHT22;35079;52.704;13.814;2022-07-01T13:26:20;27.70;93.70
49242;DHT22;35079;52.704;13.814;2022-07-01T13:28:46;27.60;93.70
49242;DHT22;35079;52.704;13.814;2022-07-01T13:31:12;27.50;93.50
49242;DHT22;35079;52.704;13.814;2022-07-01T13:33:38;27.10;93.90
49242;DHT22;35079;52.704;13.814;2022-07-01T13:36:04;26.50;93.90
49242;DHT22;35079;52.704;13.814;2022-07-01T13:38:30;25.50;95.00
49242;DHT22;35079;52.704;13.814;2022-07-01T13:40:56;25.30;95.90
49242;DHT22;35079;52.704;13.814;2022-07-01T13:43:21;24.60;97.00
49242;DHT22;35079;52.704;13.814;2022-07-01T13:45:47;24.50;97.30
49242;DHT22;35079;52.704;13.814;2022-07-01T13:48:13;24.30;97.80
49242;DHT22;35079;52.704;13.814;2022-07-01T13:50:39;24.00;98.20
49242;DHT22;35079;52.704;13.814;2022-07-01T13:53:04;23.80;98.60
49242;DHT22;35079;52.704;13.814;2022-07-01T13:55:30;23.60;99.10
49242;DHT22;35079;52.704;13.814;2022-07-01T13:57:55;23.50;99.80
49242;DHT22;35079;52.704;13.814;2022-07-01T14:00:21;23.40;99.90
49242;DHT22;35079;52.704;13.814;2022-07-01T14:02:47;23.30;99.90
49242;DHT22;35079;52.704;13.814;2022-07-01T14:05:13;23.00;99.90
49242;DHT22;35079;52.704;13.814;2022-07-01T14:07:39;22.80;99.90
49242;DHT22;35079;52.704;13.814;2022-07-01T14:10:05;22.50;99.90
49242;DHT22;35079;52.704;13.814;2022-07-01T14:12:31;22.40;99.90
49242;DHT22;35079;52.704;13.814;2022-07-01T14:14:57;22.30;99.90
49242;DHT22;35079;52.704;13.814;2022-07-01T14:17:24;22.20;99.90
49242;DHT22;35079;52.704;13.814;2022-07-01T14:19:50;22.20;99.90
49242;DHT22;35079;52.704;13.814;2022-07-01T14:22:15;22.00;99.90
49242;DHT22;35079;52.704;13.814;2022-07-01T14:24:41;22.00;99.90
49242;DHT22;35079;52.704;13.814;2022-07-01T14:27:16;21.70;99.90
49242;DHT22;35079;52.704;13.814;2022-07-01T14:29:42;21.50;99.90
49242;DHT22;35079;52.704;13.814;2022-07-01T14:32:08;21.40;99.90
49242;DHT22;35079;52.704;13.814;2022-07-01T14:34:34;21.20;99.90
49242;DHT22;35079;52.704;13.814;2022-07-01T14:36:59;21.00;99.90
49242;DHT22;35079;52.704;13.814;2022-07-01T14:56:05;20.50;99.90
49242;DHT22;35079;52.704;13.814;2022-07-01T14:58:31;20.40;99.90
49242;DHT22;35079;52.704;13.814;2022-07-01T15:01:14;20.20;99.90
49242;DHT22;35079;52.704;13.814;2022-07-01T15:03:52;20.10;99.90
49242;DHT22;35079;52.704;13.814;2022-07-01T15:06:18;20.00;99.90
49242;DHT22;35079;52.704;13.814;2022-07-01T15:09:03;20.10;99.90
49242;DHT22;35079;52.704;13.814;2022-07-01T15:11:35;19.90;99.90
49242;DHT22;35079;52.704;13.814;2022-07-01T15:14:00;19.80;99.90
49242;DHT22;35079;52.704;13.814;2022-07-01T15:16:46;19.90;99.90
49242;DHT22;35079;52.704;13.814;2022-07-01T15:19:12;19.70;99.90
49242;DHT22;35079;52.704;13.814;2022-07-01T15:21:38;19.70;99.90
49242;DHT22;35079;52.704;13.814;2022-07-01T15:24:04;19.70;99.90
49242;DHT22;35079;52.704;13.814;2022-07-01T15:26:30;19.50;99.90
49242;DHT22;35079;52.704;13.814;2022-07-01T15:28:56;19.60;99.90
49242;DHT22;35079;52.704;13.814;2022-07-01T15:31:22;19.60;99.90
49242;DHT22;35079;52.704;13.814;2022-07-01T15:33:48;19.60;99.90
49242;DHT22;35079;52.704;13.814;2022-07-01T15:36:13;19.70;99.90
49242;DHT22;35079;52.704;13.814;2022-07-01T15:38:43;19.60;99.90
49242;DHT22;35079;52.704;13.814;2022-07-01T15:41:12;19.50;99.90
49242;DHT22;35079;52.704;13.814;2022-07-01T15:43:38;19.50;99.90
49242;DHT22;35079;52.704;13.814;2022-07-01T15:46:07;19.50;99.90
49242;DHT22;35079;52.704;13.814;2022-07-01T15:48:32;19.30;99.90
49242;DHT22;35079;52.704;13.814;2022-07-01T15:50:58;19.30;99.90
49242;DHT22;35079;52.704;13.814;2022-07-01T15:53:24;19.30;99.90
49242;DHT22;35079;52.704;13.814;2022-07-01T15:55:50;19.20;99.90
49242;DHT22;35079;52.704;13.814;2022-07-01T15:58:18;19.10;99.90
49242;DHT22;35079;52.704;13.814;2022-07-01T16:00:46;19.00;99.90
49242;DHT22;35079;52.704;13.814;2022-07-01T16:03:13;18.90;99.90
49242;DHT22;35079;52.704;13.814;2022-07-01T16:05:41;18.90;99.90
49242;DHT22;35079;52.704;13.814;2022-07-01T16:08:11;19.00;99.90
49242;DHT22;35079;52.704;13.814;2022-07-01T16:10:41;18.90;99.90
49242;DHT22;35079;52.704;13.814;2022-07-01T16:13:14;18.90;99.90
49242;DHT22;35079;52.704;13.814;2022-07-01T16:15:43;18.80;99.90
49242;DHT22;35079;52.704;13.814;2022-07-01T16:18:11;18.90;99.90
49242;DHT22;35079;52.704;13.814;2022-07-01T16:20:39;18.80;99.90
49242;DHT22;35079;52.704;13.814;2022-07-01T16:23:06;18.80;99.90
49242;DHT22;35079;52.704;13.814;2022-07-01T16:25:33;18.80;99.90
49242;DHT22;35079;52.704;13.814;2022-07-01T16:27:59;18.70;99.90
49242;DHT22;35079;52.704;13.814;2022-07-01T16:30:26;18.70;99.90
49242;DHT22;35079;52.704;13.814;2022-07-01T16:32:54;18.90;99.90
49242;DHT22;35079;52.704;13.814;2022-07-01T16:35:21;18.70;99.90
49242;DHT22;35079;52.704;13.814;2022-07-01T16:37:53;18.70;99.90
49242;DHT22;35079;52.704;13.814;2022-07-01T16:40:30;18.70;99.90
49242;DHT22;35079;52.704;13.814;2022-07-01T16:43:00;18.70;99.90
49242;DHT22;35079;52.704;13.814;2022-07-01T16:45:34;18.70;99.90
49242;DHT22;35079;52.704;13.814;2022-07-01T16:48:00;18.70;99.90
49242;DHT22;35079;52.704;13.814;2022-07-01T16:50:28;18.60;99.90
49242;DHT22;35079;52.704;13.814;2022-07-01T16:52:55;18.50;99.90
49242;DHT22;35079;52.704;13.814;2022-07-01T16:55:29;18.40;99.90
49242;DHT22;35079;52.704;13.814;2022-07-01T16:58:01;18.50;99.90
49242;DHT22;35079;52.704;13.814;2022-07-01T17:00:30;18.60;99.90
49242;DHT22;35079;52.704;13.814;2022-07-01T17:02:57;18.60;99.90
49242;DHT22;35079;52.704;13.814;2022-07-01T17:05:25;18.60;99.90
49242;DHT22;35079;52.704;13.814;2022-07-01T17:07:52;18.60;99.90